createdAt,value
2022-08-31T00:02:16.720Z,98808.53
2022-08-31T00:07:25.240Z,98808.44
2022-08-31T00:12:33.936Z,98806.38
2022-08-31T00:17:41.133Z,98804.22
2022-08-31T00:22:49.665Z,98801.88
2022-08-31T00:27:55.778Z,98801.94
2022-08-31T00:33:00.815Z,98801.06
2022-08-31T00:38:08.944Z,98807.06
2022-08-31T00:43:14.799Z,98814.06
2022-08-31T00:48:19.423Z,98813.63
2022-08-31T00:53:27.285Z,98806.69
2022-08-31T00:58:32.104Z,98815.19
2022-08-31T01:03:36.770Z,98813.22
2022-08-31T01:08:44.798Z,98819.69
2022-08-31T01:13:50.200Z,98815.16
2022-08-31T01:18:58.993Z,98816.00
2022-08-31T01:24:08.370Z,98819.94
2022-08-31T01:29:12.996Z,98820.66
2022-08-31T01:34:22.007Z,98826.47
2022-08-31T01:39:30.161Z,98822.06
2022-08-31T01:44:35.411Z,98823.44
2022-08-31T01:49:47.165Z,98807.34
2022-08-31T01:54:54.457Z,98805.16
2022-08-31T02:00:02.341Z,98818.28
2022-08-31T02:05:28.320Z,98821.00
2022-08-31T02:10:36.500Z,98825.28
2022-08-31T02:15:41.613Z,98824.00
2022-08-31T02:20:46.823Z,98817.75
2022-08-31T02:25:55.749Z,98827.47
2022-08-31T02:31:00.467Z,98819.38
2022-08-31T02:36:06.334Z,98822.59
2022-08-31T02:41:13.660Z,98827.03
2022-08-31T02:46:20.676Z,98831.50
2022-08-31T02:51:35.565Z,98836.78
2022-08-31T02:56:44.096Z,98833.72
2022-08-31T03:01:48.913Z,98827.00
2022-08-31T03:06:55.130Z,98821.91
2022-08-31T03:12:02.696Z,98818.53
2022-08-31T03:17:08.111Z,98816.00
2022-08-31T03:22:15.057Z,98818.19
2022-08-31T03:27:22.813Z,98813.69
2022-08-31T03:32:27.648Z,98822.19
2022-08-31T03:37:33.496Z,98808.63
2022-08-31T03:42:42.848Z,98824.06
2022-08-31T03:47:51.041Z,98839.66
2022-08-31T03:52:56.539Z,98856.09
2022-08-31T03:58:05.103Z,98855.72
2022-08-31T04:03:14.311Z,98848.97
2022-08-31T04:08:38.135Z,98858.09
2022-08-31T04:14:15.690Z,98852.69
2022-08-31T04:19:41.673Z,98846.78
2022-08-31T04:25:10.562Z,98859.47
2022-08-31T04:30:50.856Z,98865.06
2022-08-31T04:35:56.035Z,98860.31
2022-08-31T04:41:01.053Z,98862.34
2022-08-31T04:46:11.309Z,98863.03
2022-08-31T04:51:19.224Z,98867.78
2022-08-31T04:56:26.849Z,98867.63
2022-08-31T05:01:43.239Z,98868.81
2022-08-31T05:06:54.730Z,98880.28
2022-08-31T05:12:00.022Z,98889.09
2022-08-31T05:17:14.963Z,98878.94
2022-08-31T05:22:20.368Z,98899.09
2022-08-31T05:27:26.912Z,98889.09
2022-08-31T05:32:34.221Z,98903.50
2022-08-31T05:37:43.103Z,98900.78
2022-08-31T05:42:48.129Z,98901.81
2022-08-31T05:47:55.691Z,98913.81
2022-08-31T05:53:00.634Z,98913.31
2022-08-31T05:58:05.419Z,98935.13
2022-08-31T06:03:12.650Z,98928.03
2022-08-31T06:08:37.385Z,98935.13
2022-08-31T06:14:09.811Z,98934.97
2022-08-31T06:19:17.981Z,98937.81
2022-08-31T06:24:25.587Z,98944.25
2022-08-31T06:29:32.423Z,98942.56
2022-08-31T06:34:42.520Z,98945.44
2022-08-31T06:40:06.984Z,98941.66
2022-08-31T06:45:30.454Z,98944.19
2022-08-31T06:51:01.421Z,98943.44
2022-08-31T06:56:16.430Z,98943.81
2022-08-31T07:01:48.825Z,98949.56
2022-08-31T07:07:13.021Z,98955.59
2022-08-31T07:12:19.129Z,98953.16
2022-08-31T07:17:27.239Z,98955.47
2022-08-31T07:22:34.598Z,98943.47
2022-08-31T07:27:59.471Z,98954.56
2022-08-31T07:33:07.216Z,98953.19
2022-08-31T07:38:30.948Z,98946.56
2022-08-31T07:43:35.752Z,98957.78
2022-08-31T07:48:41.949Z,98946.75
2022-08-31T07:54:08.640Z,98939.03
2022-08-31T07:59:42.970Z,98940.47
2022-08-31T08:04:54.296Z,98951.34
2022-08-31T08:10:37.743Z,98946.47
2022-08-31T08:16:03.301Z,98951.91
2022-08-31T08:21:29.323Z,98949.38
2022-08-31T08:26:36.751Z,98953.38
2022-08-31T08:31:42.809Z,98952.66
2022-08-31T08:36:47.562Z,98951.13
2022-08-31T08:41:58.842Z,98956.50
2022-08-31T08:47:06.200Z,98943.22
2022-08-31T08:52:27.899Z,98949.91
2022-08-31T08:57:39.090Z,98956.56
2022-08-31T09:02:58.430Z,98960.84
2022-08-31T09:08:42.675Z,98964.94
2022-08-31T09:14:06.777Z,98950.75
2022-08-31T09:19:17.291Z,98958.38
2022-08-31T09:24:27.173Z,98957.16
2022-08-31T09:30:01.516Z,98954.00
2022-08-31T09:35:09.421Z,98945.03
2022-08-31T09:40:23.605Z,98934.31
2022-08-31T09:45:38.701Z,98933.06
2022-08-31T09:50:48.879Z,98937.94
2022-08-31T09:56:13.336Z,98936.50
2022-08-31T10:01:28.344Z,98930.81
2022-08-31T10:06:46.664Z,98929.34
2022-08-31T10:11:57.804Z,98931.25
2022-08-31T10:17:12.975Z,98924.88
2022-08-31T10:22:28.286Z,98925.75
2022-08-31T10:27:41.151Z,98925.56
2022-08-31T10:32:56.047Z,98928.53
2022-08-31T10:38:10.356Z,98930.22
2022-08-31T10:43:19.460Z,98928.53
2022-08-31T10:48:28.903Z,98919.13
2022-08-31T10:53:51.029Z,98920.13
2022-08-31T10:59:11.003Z,98914.88
2022-08-31T11:04:37.500Z,98910.88
2022-08-31T11:09:50.437Z,98916.31
2022-08-31T11:15:22.586Z,98914.16
2022-08-31T11:20:48.142Z,98911.84
2022-08-31T11:26:20.646Z,98911.84
2022-08-31T11:31:32.028Z,98914.97
2022-08-31T11:36:55.239Z,98905.72
2022-08-31T11:42:00.606Z,98913.25
2022-08-31T11:47:08.216Z,98901.88
2022-08-31T11:52:34.699Z,98897.47
2022-08-31T11:58:21.348Z,98894.66
2022-08-31T12:03:46.279Z,98898.75
2022-08-31T12:08:55.319Z,98899.09
2022-08-31T12:14:06.016Z,98899.78
2022-08-31T12:19:48.157Z,98896.94
2022-08-31T12:25:11.816Z,98889.06
2022-08-31T12:30:21.621Z,98887.75
2022-08-31T12:35:28.947Z,98896.09
2022-08-31T12:40:38.709Z,98884.59
2022-08-31T12:46:17.109Z,98881.28
2022-08-31T12:51:38.513Z,98885.03
2022-08-31T12:56:56.789Z,98890.28
2022-08-31T13:02:06.173Z,98882.47
2022-08-31T13:07:37.040Z,98888.59
2022-08-31T13:12:52.667Z,98883.69
2022-08-31T13:18:05.253Z,98878.88
2022-08-31T13:23:11.552Z,98870.69
2022-08-31T13:28:30.568Z,98866.34
2022-08-31T13:33:40.311Z,98871.19
2022-08-31T13:38:51.766Z,98866.94
2022-08-31T13:44:03.670Z,98863.44
2022-08-31T13:49:11.660Z,98858.88
2022-08-31T13:54:30.686Z,98862.72
2022-08-31T13:59:41.015Z,98853.41
2022-08-31T14:05:00.447Z,98843.22
2022-08-31T14:10:09.319Z,98846.16
2022-08-31T14:15:36.502Z,98847.47
2022-08-31T14:21:09.948Z,98840.34
2022-08-31T14:26:15.774Z,98845.06
2022-08-31T14:31:29.218Z,98838.53
2022-08-31T14:36:51.205Z,98832.97
2022-08-31T14:41:57.804Z,98832.72
2022-08-31T14:47:07.009Z,98825.78
2022-08-31T14:52:13.082Z,98815.41
2022-08-31T14:57:25.282Z,98815.84
2022-08-31T15:02:35.588Z,98812.94
2022-08-31T15:07:44.613Z,98811.75
2022-08-31T15:12:50.578Z,98817.78
2022-08-31T15:17:57.937Z,98827.75
2022-08-31T15:23:03.321Z,98833.56
2022-08-31T15:28:08.789Z,98836.84
2022-08-31T15:33:16.035Z,98827.03
2022-08-31T15:38:20.920Z,98823.69
2022-08-31T15:43:25.713Z,98826.47
2022-08-31T15:48:45.446Z,98823.75
2022-08-31T15:54:11.671Z,98821.88
2022-08-31T15:59:16.845Z,98811.59
2022-08-31T16:04:26.083Z,98813.94
2022-08-31T16:09:30.794Z,98813.75
2022-08-31T16:14:38.491Z,98806.81
2022-08-31T16:19:45.712Z,98809.34
2022-08-31T16:24:52.661Z,98803.31
2022-08-31T16:29:58.368Z,98805.22
2022-08-31T16:35:06.559Z,98805.03
2022-08-31T16:40:13.954Z,98798.31
2022-08-31T16:45:21.093Z,98800.88
2022-08-31T16:50:28.298Z,98802.97
2022-08-31T16:55:34.733Z,98812.03
2022-08-31T17:00:40.255Z,98811.84
2022-08-31T17:05:49.428Z,98818.09
2022-08-31T17:10:54.412Z,98822.13
2022-08-31T17:15:59.079Z,98824.66
2022-08-31T17:21:06.539Z,98818.97
2022-08-31T17:26:12.678Z,98826.13
2022-08-31T17:31:17.347Z,98818.56
2022-08-31T17:36:25.499Z,98822.75
2022-08-31T17:41:30.687Z,98826.34
2022-08-31T17:46:35.619Z,98817.50
2022-08-31T17:51:43.456Z,98830.53
2022-08-31T17:56:53.897Z,98825.91
2022-08-31T18:02:00.926Z,98829.44
2022-08-31T18:07:09.503Z,98831.94
2022-08-31T18:12:14.729Z,98840.53
2022-08-31T18:17:21.668Z,98840.28
2022-08-31T18:22:29.234Z,98850.09
2022-08-31T18:27:34.096Z,98860.31
2022-08-31T18:32:38.930Z,98867.16
2022-08-31T18:37:55.030Z,98869.25
2022-08-31T18:43:12.278Z,98855.75
2022-08-31T18:48:25.711Z,98861.09
2022-08-31T18:53:37.833Z,98865.28
2022-08-31T18:58:43.583Z,98864.81
2022-08-31T19:03:48.525Z,98873.09
2022-08-31T19:08:56.884Z,98877.00
2022-08-31T19:14:03.268Z,98880.25
2022-08-31T19:19:08.206Z,98877.09
2022-08-31T19:24:18.708Z,98875.78
2022-08-31T19:29:27.121Z,98880.78
2022-08-31T19:34:34.507Z,98879.50
2022-08-31T19:39:45.692Z,98876.53
2022-08-31T19:44:54.987Z,98878.59
2022-08-31T19:50:18.054Z,98879.84
2022-08-31T19:55:25.322Z,98872.69
2022-08-31T20:00:30.782Z,98878.53
2022-08-31T20:05:40.119Z,98875.94
2022-08-31T20:10:49.284Z,98881.97
2022-08-31T20:15:54.749Z,98874.19
2022-08-31T20:21:01.458Z,98886.50
2022-08-31T20:26:11.897Z,98880.81
2022-08-31T20:31:17.167Z,98876.31
2022-08-31T20:36:26.588Z,98876.53
2022-08-31T20:41:35.203Z,98881.31
2022-08-31T20:46:57.069Z,98876.03
2022-08-31T20:52:02.824Z,98881.69
2022-08-31T20:57:12.068Z,98883.16
2022-08-31T21:02:17.575Z,98878.59
2022-08-31T21:07:23.303Z,98889.84
2022-08-31T21:12:31.211Z,98892.56
2022-08-31T21:17:36.126Z,98883.38
2022-08-31T21:22:40.952Z,98878.97
2022-08-31T21:27:48.163Z,98875.59
2022-08-31T21:32:53.937Z,98884.78
2022-08-31T21:37:59.063Z,98890.63
2022-08-31T21:43:07.140Z,98895.41
2022-08-31T21:48:11.799Z,98895.09
2022-08-31T21:53:16.494Z,98892.59
2022-08-31T21:58:24.000Z,98886.69
2022-08-31T22:03:36.801Z,98895.22
2022-08-31T22:08:42.700Z,98891.38
2022-08-31T22:13:51.990Z,98887.19
2022-08-31T22:19:01.389Z,98889.91
2022-08-31T22:24:10.287Z,98888.38
2022-08-31T22:29:23.829Z,98885.84
2022-08-31T22:34:29.419Z,98880.63
2022-08-31T22:39:35.046Z,98876.38
2022-08-31T22:44:44.020Z,98869.66
2022-08-31T22:49:48.704Z,98876.50
2022-08-31T22:54:53.892Z,98874.78
2022-08-31T23:00:01.152Z,98881.47
2022-08-31T23:05:05.752Z,98878.91
2022-08-31T23:10:13.970Z,98875.38
2022-08-31T23:15:22.766Z,98873.88
2022-08-31T23:20:27.908Z,98859.31
2022-08-31T23:25:32.719Z,98858.03
2022-08-31T23:30:43.977Z,98861.69
2022-08-31T23:35:50.048Z,98848.47
2022-08-31T23:40:56.359Z,98853.63
2022-08-31T23:46:05.598Z,98844.31
2022-08-31T23:51:11.758Z,98846.31
2022-08-31T23:56:18.206Z,98845.56
